createdAt,value
2023-11-10T00:00:36.765Z,99189.63
2023-11-10T00:03:26.203Z,99187.03
2023-11-10T00:05:53.920Z,99189.41
2023-11-10T00:08:21.862Z,99189.72
2023-11-10T00:10:49.225Z,99173.19
2023-11-10T00:13:17.157Z,99167.19
2023-11-10T00:15:44.759Z,99158.97
2023-11-10T00:18:12.604Z,99162.34
2023-11-10T00:20:41.818Z,99163.09
2023-11-10T00:23:09.597Z,99159.16
2023-11-10T00:25:36.961Z,99168.84
2023-11-10T00:28:05.247Z,99169.13
2023-11-10T00:30:32.618Z,99156.63
2023-11-10T00:33:00.413Z,99161.75
2023-11-10T00:35:29.077Z,99165.34
2023-11-10T00:37:58.264Z,99163.97
2023-11-10T00:40:25.587Z,99160.13
2023-11-10T00:42:53.503Z,99160.81
2023-11-10T00:45:21.084Z,99165.91
2023-11-10T00:47:48.977Z,99163.22
2023-11-10T00:50:16.551Z,99154.88
2023-11-10T00:52:44.272Z,99154.38
2023-11-10T00:55:13.114Z,99148.19
2023-11-10T00:57:40.923Z,99149.00
2023-11-10T01:00:09.570Z,99149.88
2023-11-10T01:02:37.647Z,99137.63
2023-11-10T01:05:05.963Z,99139.16
2023-11-10T01:07:33.774Z,99139.63
2023-11-10T01:10:01.153Z,99132.19
2023-11-10T01:12:30.505Z,99125.25
2023-11-10T01:14:57.881Z,99120.41
2023-11-10T01:17:25.644Z,99118.47
2023-11-10T01:19:53.048Z,99128.69
2023-11-10T01:22:20.760Z,99124.13
2023-11-10T01:24:48.071Z,99122.34
2023-11-10T01:27:15.801Z,99118.59
2023-11-10T01:29:44.446Z,99110.34
2023-11-10T01:32:12.172Z,99105.22
2023-11-10T01:34:39.616Z,99103.16
2023-11-10T01:37:07.738Z,99101.91
2023-11-10T01:39:35.241Z,99089.28
2023-11-10T01:42:02.972Z,99087.44
2023-11-10T01:44:30.360Z,99088.47
2023-11-10T01:47:00.411Z,99091.66
2023-11-10T01:49:27.777Z,99087.06
2023-11-10T01:51:56.669Z,99084.75
2023-11-10T01:54:27.980Z,99083.53
2023-11-10T01:56:56.422Z,99074.69
2023-11-10T01:59:24.004Z,99083.91
2023-11-10T02:01:51.833Z,99079.09
2023-11-10T02:04:20.837Z,99075.59
2023-11-10T02:06:49.589Z,99064.13
2023-11-10T02:09:17.415Z,99066.31
2023-11-10T02:11:45.362Z,99064.44
2023-11-10T02:14:14.336Z,99068.28
2023-11-10T02:16:42.525Z,99057.63
2023-11-10T02:19:13.910Z,99056.44
2023-11-10T02:21:43.324Z,99057.72
2023-11-10T02:24:12.398Z,99056.38
2023-11-10T02:26:47.446Z,99057.25
2023-11-10T02:29:14.782Z,99059.88
2023-11-10T02:31:42.654Z,99059.59
2023-11-10T02:34:10.034Z,99055.09
2023-11-10T02:36:37.718Z,99050.09
2023-11-10T02:39:06.034Z,99050.16
2023-11-10T02:41:34.600Z,99048.44
2023-11-10T02:44:03.526Z,99037.09
2023-11-10T02:46:31.163Z,99039.44
2023-11-10T02:48:58.490Z,99035.75
2023-11-10T02:51:26.308Z,99027.59
2023-11-10T02:53:53.682Z,99027.78
2023-11-10T02:56:21.864Z,99022.63
2023-11-10T02:58:49.223Z,99014.38
2023-11-10T03:01:22.908Z,99011.50
2023-11-10T03:03:50.424Z,99013.25
2023-11-10T03:06:18.344Z,99009.50
2023-11-10T03:08:45.829Z,98995.59
2023-11-10T03:11:13.710Z,98993.66
2023-11-10T03:13:41.762Z,98999.69
2023-11-10T03:16:09.494Z,98997.88
2023-11-10T03:18:38.321Z,98992.84
2023-11-10T03:21:06.552Z,98988.25
2023-11-10T03:23:34.002Z,98984.03
2023-11-10T03:26:02.756Z,98986.22
2023-11-10T03:28:30.145Z,98983.47
2023-11-10T03:30:57.824Z,98982.47
2023-11-10T03:33:25.200Z,98975.47
2023-11-10T03:35:54.400Z,98977.09
2023-11-10T03:38:21.684Z,98978.16
2023-11-10T03:40:49.414Z,98981.75
2023-11-10T03:43:16.821Z,98982.38
2023-11-10T03:45:44.843Z,98981.34
2023-11-10T03:48:12.346Z,98992.56
2023-11-10T03:50:41.175Z,98986.94
2023-11-10T03:53:09.912Z,98987.25
2023-11-10T03:55:37.615Z,98982.72
2023-11-10T03:58:04.944Z,98977.94
2023-11-10T04:00:42.015Z,98987.31
2023-11-10T04:03:16.262Z,98982.78
2023-11-10T04:05:44.383Z,98985.69
2023-11-10T04:08:13.165Z,98973.28
2023-11-10T04:10:40.806Z,98972.81
2023-11-10T04:13:08.159Z,98969.13
2023-11-10T04:15:35.980Z,98961.25
2023-11-10T04:18:03.549Z,98954.94
2023-11-10T04:20:31.335Z,98949.66
2023-11-10T04:22:58.681Z,98934.94
2023-11-10T04:25:32.511Z,98931.78
2023-11-10T04:27:59.720Z,98938.41
2023-11-10T04:30:27.572Z,98936.50
2023-11-10T04:32:55.049Z,98922.91
2023-11-10T04:35:22.755Z,98933.88
2023-11-10T04:37:50.450Z,98926.13
2023-11-10T04:40:18.302Z,98935.47
2023-11-10T04:42:47.040Z,98932.00
2023-11-10T04:45:15.117Z,98934.34
2023-11-10T04:47:42.532Z,98934.38
2023-11-10T04:50:11.050Z,98940.09
2023-11-10T04:52:38.658Z,98938.03
2023-11-10T04:55:06.906Z,98937.00
2023-11-10T04:57:34.301Z,98936.78
2023-11-10T05:00:03.791Z,98938.03
2023-11-10T05:02:31.297Z,98928.66
2023-11-10T05:05:00.581Z,98932.59
2023-11-10T05:07:28.162Z,98939.94
2023-11-10T05:09:56.092Z,98930.88
2023-11-10T05:12:23.385Z,98931.25
2023-11-10T05:14:55.770Z,98930.03
2023-11-10T05:17:24.564Z,98933.66
2023-11-10T05:19:52.304Z,98930.41
2023-11-10T05:22:19.747Z,98935.94
2023-11-10T05:24:47.393Z,98930.72
2023-11-10T05:27:14.848Z,98932.25
2023-11-10T05:29:42.743Z,98933.19
2023-11-10T05:32:10.186Z,98929.16
2023-11-10T05:34:39.420Z,98922.19
2023-11-10T05:37:06.781Z,98928.94
2023-11-10T05:39:34.645Z,98919.59
2023-11-10T05:42:02.025Z,98910.06
2023-11-10T05:44:29.823Z,98908.66
2023-11-10T05:46:57.349Z,98910.63
2023-11-10T05:49:25.118Z,98907.91
2023-11-10T05:51:53.915Z,98911.22
2023-11-10T05:54:21.684Z,98909.56
2023-11-10T05:56:49.063Z,98913.78
2023-11-10T05:59:16.863Z,98922.31
2023-11-10T06:01:44.346Z,98923.53
2023-11-10T06:04:21.447Z,98934.34
2023-11-10T06:06:54.765Z,98938.59
2023-11-10T06:09:22.759Z,98940.28
2023-11-10T06:11:55.431Z,98943.06
2023-11-10T06:14:24.112Z,98935.53
2023-11-10T06:16:51.499Z,98933.41
2023-11-10T06:19:19.320Z,98925.63
2023-11-10T06:21:46.880Z,98930.16
2023-11-10T06:24:19.969Z,98930.50
2023-11-10T06:26:47.449Z,98933.72
2023-11-10T06:29:15.159Z,98933.63
2023-11-10T06:31:42.757Z,98948.00
2023-11-10T06:34:10.640Z,98953.59
2023-11-10T06:36:38.080Z,98954.56
2023-11-10T06:39:06.097Z,98953.09
2023-11-10T06:41:34.890Z,98957.94
2023-11-10T06:44:02.632Z,98953.38
2023-11-10T06:46:30.318Z,98958.31
2023-11-10T06:48:58.261Z,98968.75
2023-11-10T06:51:25.728Z,98973.56
2023-11-10T06:53:53.475Z,98974.75
2023-11-10T06:56:20.885Z,98978.38
2023-11-10T06:58:53.770Z,98975.75
2023-11-10T07:01:21.349Z,98967.69
2023-11-10T07:03:49.298Z,98959.75
2023-11-10T07:06:16.805Z,98963.03
2023-11-10T07:08:44.727Z,98962.72
2023-11-10T07:11:14.494Z,98959.59
2023-11-10T07:13:42.333Z,98958.53
2023-11-10T07:16:11.136Z,98955.25
2023-11-10T07:18:39.002Z,98950.72
2023-11-10T07:21:06.588Z,98945.25
2023-11-10T07:23:34.439Z,98951.31
2023-11-10T07:26:01.981Z,98952.69
2023-11-10T07:28:29.679Z,98961.53
2023-11-10T07:30:57.111Z,98955.25
2023-11-10T07:33:26.304Z,98953.09
2023-11-10T07:35:53.712Z,98959.97
2023-11-10T07:38:21.601Z,98964.09
2023-11-10T07:40:48.969Z,98968.41
2023-11-10T07:43:16.724Z,98965.53
2023-11-10T07:45:46.280Z,98966.97
2023-11-10T07:48:14.151Z,98961.53
2023-11-10T07:50:43.014Z,98950.47
2023-11-10T07:53:10.758Z,98949.44
2023-11-10T07:55:38.016Z,98940.78
2023-11-10T07:58:05.952Z,98947.88
2023-11-10T08:00:33.357Z,98947.63
2023-11-10T08:03:01.239Z,98942.75
2023-11-10T08:05:28.794Z,98945.72
2023-11-10T08:07:58.099Z,98941.41
2023-11-10T08:10:25.475Z,98938.63
2023-11-10T08:12:53.297Z,98935.13
2023-11-10T08:15:20.664Z,98941.56
2023-11-10T08:17:48.543Z,98943.66
2023-11-10T08:20:16.065Z,98942.41
2023-11-10T08:22:43.933Z,98943.88
2023-11-10T08:25:12.752Z,98948.88
2023-11-10T08:27:40.585Z,98937.09
2023-11-10T08:30:09.273Z,98932.53
2023-11-10T08:32:37.061Z,98932.53
2023-11-10T08:35:05.081Z,98934.56
2023-11-10T08:37:33.034Z,98920.84
2023-11-10T08:40:00.441Z,98930.03
2023-11-10T08:42:29.682Z,98933.16
2023-11-10T08:44:57.213Z,98932.75
2023-11-10T08:47:25.194Z,98948.66
2023-11-10T08:49:52.585Z,98941.44
2023-11-10T08:52:20.462Z,98942.28
2023-11-10T08:54:47.798Z,98946.19
2023-11-10T08:57:15.613Z,98943.50
2023-11-10T08:59:44.479Z,98935.41
2023-11-10T09:02:12.692Z,98939.16
2023-11-10T09:04:40.327Z,98929.44
2023-11-10T09:07:08.423Z,98944.75
2023-11-10T09:09:35.940Z,98941.81
2023-11-10T09:12:04.160Z,98943.28
2023-11-10T09:14:31.526Z,98947.38
2023-11-10T09:17:00.725Z,98948.63
2023-11-10T09:19:28.087Z,98954.06
2023-11-10T09:21:56.018Z,98953.19
2023-11-10T09:24:23.374Z,98943.88
2023-11-10T09:26:51.093Z,98958.34
2023-11-10T09:29:18.713Z,98954.34
2023-11-10T09:31:46.586Z,98947.28
2023-11-10T09:34:15.320Z,98950.44
2023-11-10T09:36:43.201Z,98948.72
2023-11-10T09:39:15.267Z,98943.50
2023-11-10T09:41:48.735Z,98943.81
2023-11-10T09:44:16.124Z,98939.63
2023-11-10T09:46:44.686Z,98946.72
2023-11-10T09:49:12.336Z,98950.91
2023-11-10T09:51:42.443Z,98938.94
2023-11-10T09:54:10.345Z,98940.59
2023-11-10T09:56:38.876Z,98937.69
2023-11-10T09:59:07.120Z,98930.03
2023-11-10T10:01:35.057Z,98929.38
2023-11-10T10:04:02.598Z,98918.44
2023-11-10T10:06:33.496Z,98922.16
2023-11-10T10:09:05.063Z,98924.41
2023-11-10T10:11:33.641Z,98920.59
2023-11-10T10:14:01.432Z,98913.38
2023-11-10T10:16:29.348Z,98911.22
2023-11-10T10:18:56.812Z,98909.78
2023-11-10T10:21:24.576Z,98907.38
2023-11-10T10:23:51.998Z,98912.00
2023-11-10T10:26:21.249Z,98897.94
2023-11-10T10:28:48.805Z,98904.38
2023-11-10T10:31:16.564Z,98910.56
2023-11-10T10:33:44.125Z,98896.69
2023-11-10T10:36:11.947Z,98895.03
2023-11-10T10:38:48.309Z,98885.94
2023-11-10T10:41:20.309Z,98886.56
2023-11-10T10:43:58.402Z,98889.88
2023-11-10T10:46:38.341Z,98879.28
2023-11-10T10:49:07.946Z,98889.66
2023-11-10T10:51:37.039Z,98890.91
2023-11-10T10:54:05.616Z,98882.00
2023-11-10T10:56:44.210Z,98885.53
2023-11-10T10:59:14.518Z,98878.47
2023-11-10T11:01:45.194Z,98886.38
2023-11-10T11:04:29.393Z,98882.81
2023-11-10T11:07:16.042Z,98880.97
2023-11-10T11:10:00.260Z,98877.84
2023-11-10T11:13:12.203Z,98870.59
2023-11-10T11:15:48.478Z,98863.16
2023-11-10T11:18:32.260Z,98857.16
2023-11-10T11:21:00.181Z,98853.63
2023-11-10T11:23:28.006Z,98853.63
2023-11-10T11:25:59.161Z,98848.47
2023-11-10T11:28:27.684Z,98856.53
2023-11-10T11:31:07.801Z,98853.63
2023-11-10T11:33:35.876Z,98854.06
2023-11-10T11:36:03.396Z,98860.28
2023-11-10T11:38:35.063Z,98846.63
2023-11-10T11:41:05.063Z,98841.66
2023-11-10T11:43:33.572Z,98845.41
2023-11-10T11:46:03.255Z,98836.50
2023-11-10T11:48:33.751Z,98846.44
2023-11-10T11:51:03.967Z,98840.59
2023-11-10T11:53:31.819Z,98834.13
2023-11-10T11:56:01.637Z,98834.31
2023-11-10T11:58:30.977Z,98832.72
2023-11-10T12:00:58.609Z,98826.06
2023-11-10T12:03:26.662Z,98839.13
2023-11-10T12:05:57.410Z,98832.28
2023-11-10T12:08:26.465Z,98832.22
2023-11-10T12:10:53.939Z,98838.19
2023-11-10T12:13:21.900Z,98830.50
2023-11-10T12:15:49.513Z,98834.69
2023-11-10T12:18:17.838Z,98841.22
2023-11-10T12:20:45.274Z,98838.97
2023-11-10T12:23:18.792Z,98836.63
2023-11-10T12:25:46.579Z,98836.03
2023-11-10T12:28:14.635Z,98839.94
2023-11-10T12:30:42.561Z,98837.84
2023-11-10T12:33:10.517Z,98846.06
2023-11-10T12:35:39.246Z,98833.81
2023-11-10T12:38:07.356Z,98832.66
2023-11-10T12:40:36.660Z,98830.41
2023-11-10T12:43:05.855Z,98826.88
2023-11-10T12:45:33.335Z,98822.75
2023-11-10T12:48:05.928Z,98825.84
2023-11-10T12:50:35.033Z,98827.69
2023-11-10T12:53:03.508Z,98836.94
2023-11-10T12:55:31.041Z,98834.38
2023-11-10T12:58:00.344Z,98833.28
2023-11-10T13:00:27.894Z,98834.25
2023-11-10T13:02:55.977Z,98831.63
2023-11-10T13:05:23.301Z,98837.47
2023-11-10T13:07:51.036Z,98832.38
2023-11-10T13:10:18.647Z,98825.34
2023-11-10T13:12:46.424Z,98827.22
2023-11-10T13:15:15.359Z,98824.84
2023-11-10T13:17:43.283Z,98821.75
2023-11-10T13:20:10.776Z,98822.97
2023-11-10T13:22:38.692Z,98826.94
2023-11-10T13:25:06.911Z,98834.00
2023-11-10T13:27:34.882Z,98827.78
2023-11-10T13:30:02.507Z,98818.66
2023-11-10T13:32:31.850Z,98818.84
2023-11-10T13:34:59.345Z,98824.84
2023-11-10T13:37:27.274Z,98820.31
2023-11-10T13:39:54.755Z,98826.97
2023-11-10T13:42:22.534Z,98826.56
2023-11-10T13:44:50.004Z,98823.69
2023-11-10T13:47:17.917Z,98830.09
2023-11-10T13:49:46.633Z,98826.16
2023-11-10T13:52:14.494Z,98831.94
2023-11-10T13:54:42.017Z,98831.53
2023-11-10T13:57:09.909Z,98829.06
2023-11-10T13:59:37.354Z,98828.63
2023-11-10T14:02:05.170Z,98819.06
2023-11-10T14:04:32.648Z,98830.84
2023-11-10T14:07:02.105Z,98828.97
2023-11-10T14:09:29.580Z,98826.09
2023-11-10T14:11:57.686Z,98827.31
2023-11-10T14:14:24.989Z,98823.16
2023-11-10T14:16:52.915Z,98825.44
2023-11-10T14:19:20.330Z,98824.84
2023-11-10T14:21:48.064Z,98819.09
2023-11-10T14:24:16.957Z,98817.66
2023-11-10T14:26:44.795Z,98823.44
2023-11-10T14:29:12.270Z,98824.47
2023-11-10T14:31:40.263Z,98833.59
2023-11-10T14:34:07.793Z,98831.50
2023-11-10T14:36:35.810Z,98836.88
2023-11-10T14:39:03.593Z,98830.28
2023-11-10T14:41:33.856Z,98834.25
2023-11-10T14:44:01.718Z,98841.88
2023-11-10T14:46:29.564Z,98843.94
2023-11-10T14:48:57.098Z,98845.38
2023-11-10T14:51:24.906Z,98847.22
2023-11-10T14:53:52.336Z,98847.63
2023-11-10T14:56:20.341Z,98840.59
2023-11-10T14:58:49.290Z,98844.53
2023-11-10T15:01:17.224Z,98842.47
2023-11-10T15:03:47.574Z,98846.41
2023-11-10T15:06:17.970Z,98834.41
2023-11-10T15:08:46.402Z,98849.28
2023-11-10T15:11:14.476Z,98850.75
2023-11-10T15:13:42.019Z,98843.53
2023-11-10T15:16:11.395Z,98847.25
2023-11-10T15:18:39.217Z,98851.41
2023-11-10T15:21:07.128Z,98854.69
2023-11-10T15:23:34.891Z,98855.53
2023-11-10T15:26:03.012Z,98858.00
2023-11-10T15:28:30.581Z,98853.03
2023-11-10T15:30:58.369Z,98854.09
2023-11-10T15:33:27.125Z,98849.53
2023-11-10T15:35:54.908Z,98855.75
2023-11-10T15:38:22.437Z,98846.44
2023-11-10T15:40:51.407Z,98857.63
2023-11-10T15:43:18.922Z,98846.44
2023-11-10T15:45:46.993Z,98841.88
2023-11-10T15:48:14.440Z,98847.66
2023-11-10T15:50:44.032Z,98842.28
2023-11-10T15:53:11.575Z,98849.72
2023-11-10T15:55:39.283Z,98842.28
2023-11-10T15:58:07.283Z,98852.66
2023-11-10T16:00:35.218Z,98846.22
2023-11-10T16:03:03.082Z,98850.97
2023-11-10T16:05:31.544Z,98855.31
2023-11-10T16:08:00.752Z,98857.19
2023-11-10T16:10:28.596Z,98857.19
2023-11-10T16:12:56.146Z,98853.69
2023-11-10T16:15:24.128Z,98851.81
2023-11-10T16:17:51.633Z,98843.53
2023-11-10T16:20:19.540Z,98861.53
2023-11-10T16:22:47.149Z,98852.84
2023-11-10T16:25:19.863Z,98861.72
2023-11-10T16:27:47.422Z,98870.22
2023-11-10T16:30:15.529Z,98860.69
2023-11-10T16:32:42.908Z,98868.59
2023-11-10T16:35:11.060Z,98870.63
2023-11-10T16:37:38.676Z,98860.91
2023-11-10T16:40:08.064Z,98864.22
2023-11-10T16:42:36.976Z,98863.19
2023-11-10T16:45:06.037Z,98871.66
2023-11-10T16:47:33.505Z,98870.84
2023-11-10T16:50:01.453Z,98870.63
2023-11-10T16:52:28.851Z,98876.22
2023-11-10T16:54:56.657Z,98876.41
2023-11-10T16:57:24.081Z,98885.31
2023-11-10T16:59:53.251Z,98883.25
2023-11-10T17:02:26.666Z,98877.25
2023-11-10T17:05:00.359Z,98874.16
2023-11-10T17:07:27.854Z,98876.22
2023-11-10T17:09:55.530Z,98878.47
2023-11-10T17:12:22.999Z,98878.84
2023-11-10T17:14:50.780Z,98877.84
2023-11-10T17:17:19.484Z,98886.53
2023-11-10T17:19:47.232Z,98885.47
2023-11-10T17:22:14.870Z,98890.03
2023-11-10T17:24:45.719Z,98881.97
2023-11-10T17:27:13.198Z,98886.56
2023-11-10T17:29:40.942Z,98881.59
2023-11-10T17:32:08.552Z,98891.09
2023-11-10T17:34:37.885Z,98886.38
2023-11-10T17:37:05.875Z,98878.31
2023-11-10T17:39:33.783Z,98887.59
2023-11-10T17:42:01.037Z,98889.44
2023-11-10T17:44:28.812Z,98882.84
2023-11-10T17:46:56.285Z,98876.44
2023-11-10T17:49:24.187Z,98877.66
2023-11-10T17:51:53.195Z,98873.69
2023-11-10T17:54:20.898Z,98876.00
2023-11-10T17:56:48.262Z,98868.97
2023-11-10T17:59:16.034Z,98879.31
2023-11-10T18:01:43.433Z,98875.38
2023-11-10T18:04:11.244Z,98876.59
2023-11-10T18:06:39.076Z,98868.50
2023-11-10T18:09:08.366Z,98860.41
2023-11-10T18:11:35.926Z,98863.50
2023-11-10T18:14:03.756Z,98867.59
2023-11-10T18:16:31.347Z,98867.25
2023-11-10T18:18:59.211Z,98861.66
2023-11-10T18:21:26.791Z,98859.59
2023-11-10T18:23:54.885Z,98864.56
2023-11-10T18:26:23.699Z,98865.00
2023-11-10T18:28:51.544Z,98874.31
2023-11-10T18:31:22.079Z,98869.56
2023-11-10T18:33:50.092Z,98871.38
2023-11-10T18:36:17.774Z,98869.72
2023-11-10T18:38:45.560Z,98868.66
2023-11-10T18:41:13.012Z,98868.91
2023-11-10T18:43:45.810Z,98862.31
2023-11-10T18:46:14.548Z,98869.06
2023-11-10T18:48:44.276Z,98871.03
2023-11-10T18:51:11.920Z,98878.28
2023-11-10T18:53:39.817Z,98874.03
2023-11-10T18:56:08.168Z,98879.28
2023-11-10T18:58:36.044Z,98878.13
2023-11-10T19:01:08.932Z,98882.69
2023-11-10T19:03:37.480Z,98885.81
2023-11-10T19:06:05.815Z,98886.53
2023-11-10T19:08:33.785Z,98882.66
2023-11-10T19:11:01.184Z,98890.44
2023-11-10T19:13:29.235Z,98892.22
2023-11-10T19:15:56.878Z,98890.13
2023-11-10T19:18:30.419Z,98896.13
2023-11-10T19:20:58.098Z,98886.06
2023-11-10T19:23:25.937Z,98887.41
2023-11-10T19:25:53.486Z,98884.00
2023-11-10T19:28:21.479Z,98891.69
2023-11-10T19:30:49.104Z,98889.44
2023-11-10T19:33:17.449Z,98886.03
2023-11-10T19:35:46.566Z,98890.72
2023-11-10T19:38:14.726Z,98893.22
2023-11-10T19:40:42.377Z,98895.06
2023-11-10T19:43:10.352Z,98885.00
2023-11-10T19:45:37.881Z,98887.78
2023-11-10T19:48:06.096Z,98891.34
2023-11-10T19:50:34.022Z,98889.44
2023-11-10T19:53:07.211Z,98891.75
2023-11-10T19:55:34.926Z,98885.38
2023-11-10T19:58:02.906Z,98891.09
2023-11-10T20:03:01.345Z,98884.84
2023-11-10T20:05:30.142Z,98885.88
2023-11-10T20:07:58.841Z,98882.22
2023-11-10T20:10:28.290Z,98886.94
2023-11-10T20:12:56.355Z,98889.41
2023-11-10T20:15:24.926Z,98883.41
2023-11-10T20:17:53.449Z,98886.41
2023-11-10T20:20:22.612Z,98902.16
2023-11-10T20:22:52.578Z,98895.53
2023-11-10T20:25:21.205Z,98895.53
2023-11-10T20:27:51.620Z,98900.94
2023-11-10T20:30:19.959Z,98897.22
2023-11-10T20:32:51.358Z,98885.53
2023-11-10T20:35:19.221Z,98886.44
2023-11-10T20:37:48.659Z,98885.88
2023-11-10T20:40:27.875Z,98880.72
2023-11-10T20:43:00.451Z,98882.59
2023-11-10T20:45:30.846Z,98868.13
2023-11-10T20:48:02.452Z,98875.50
2023-11-10T20:50:33.425Z,98876.75
2023-11-10T20:53:05.134Z,98879.88
2023-11-10T20:55:33.192Z,98878.56
2023-11-10T20:58:12.441Z,98887.97
2023-11-10T21:00:48.313Z,98887.88
2023-11-10T21:03:21.149Z,98883.66
2023-11-10T21:05:51.165Z,98888.94
2023-11-10T21:08:24.480Z,98888.53
2023-11-10T21:11:01.462Z,98889.44
2023-11-10T21:13:31.664Z,98890.06
2023-11-10T21:16:02.089Z,98886.44
2023-11-10T21:18:30.704Z,98887.06
2023-11-10T21:20:58.332Z,98885.22
2023-11-10T21:23:29.760Z,98890.75
2023-11-10T21:26:00.236Z,98881.44
2023-11-10T21:28:28.374Z,98884.28
2023-11-10T21:31:00.753Z,98874.91
2023-11-10T21:33:32.046Z,98879.88
2023-11-10T21:36:00.217Z,98875.03
2023-11-10T21:38:28.249Z,98861.63
2023-11-10T21:40:55.793Z,98863.75
2023-11-10T21:43:23.670Z,98864.16
2023-11-10T21:45:51.469Z,98865.94
2023-11-10T21:48:21.111Z,98855.75
2023-11-10T21:50:48.649Z,98863.03
2023-11-10T21:53:16.512Z,98863.34
2023-11-10T21:55:45.657Z,98868.19
2023-11-10T21:58:14.784Z,98859.47
2023-11-10T22:00:46.268Z,98873.91
2023-11-10T22:03:14.448Z,98866.66
2023-11-10T22:05:43.698Z,98867.94
2023-11-10T22:08:11.660Z,98857.81
2023-11-10T22:10:39.558Z,98855.63
2023-11-10T22:13:07.665Z,98857.09
2023-11-10T22:15:35.594Z,98856.81
2023-11-10T22:18:06.647Z,98856.56
2023-11-10T22:20:35.367Z,98864.13
2023-11-10T22:23:09.150Z,98864.63
2023-11-10T22:25:36.866Z,98855.69
2023-11-10T22:28:05.699Z,98857.13
2023-11-10T22:30:33.806Z,98860.91
2023-11-10T22:33:02.043Z,98859.44
2023-11-10T22:35:29.592Z,98855.47
2023-11-10T22:37:57.631Z,98866.16
2023-11-10T22:40:29.980Z,98861.50
2023-11-10T22:42:58.085Z,98855.50
2023-11-10T22:45:25.710Z,98854.44
2023-11-10T22:47:53.808Z,98856.97
2023-11-10T22:50:21.475Z,98849.69
2023-11-10T22:52:49.690Z,98851.84
2023-11-10T22:55:18.086Z,98848.72
2023-11-10T22:57:47.898Z,98853.66
2023-11-10T23:00:16.204Z,98851.91
2023-11-10T23:02:44.067Z,98848.72
2023-11-10T23:05:11.540Z,98851.56
2023-11-10T23:07:39.479Z,98848.41
2023-11-10T23:10:07.849Z,98843.72
2023-11-10T23:12:35.896Z,98847.81
2023-11-10T23:15:05.846Z,98847.16
2023-11-10T23:17:33.596Z,98844.00
2023-11-10T23:20:01.089Z,98840.06
2023-11-10T23:22:28.948Z,98849.34
2023-11-10T23:24:56.367Z,98843.84
2023-11-10T23:27:24.249Z,98847.22
2023-11-10T23:29:51.615Z,98837.44
2023-11-10T23:32:20.966Z,98841.56
2023-11-10T23:34:48.457Z,98850.25
2023-11-10T23:37:16.176Z,98845.44
2023-11-10T23:39:43.712Z,98850.94
2023-11-10T23:42:11.548Z,98848.63
2023-11-10T23:44:39.302Z,98849.81
2023-11-10T23:47:11.529Z,98842.47
2023-11-10T23:49:40.546Z,98840.16
2023-11-10T23:52:08.974Z,98835.34
2023-11-10T23:54:36.415Z,98830.34
2023-11-10T23:57:05.461Z,98822.69
2023-11-10T23:59:33.183Z,98827.34
